sensor_id;sensor_type;location;lat;lon;timestamp;pressure;altitude;pressure_sealevel;temperature;humidity
12759;BME280;20944;47.048;15.390;2022-12-18T00:00:05;98909.41;;;-2.08;100.00
12759;BME280;20944;47.048;15.390;2022-12-18T00:02:35;98914.53;;;-2.08;100.00
12759;BME280;20944;47.048;15.390;2022-12-18T00:05:04;98916.06;;;-2.13;100.00
12759;BME280;20944;47.048;15.390;2022-12-18T00:07:33;98910.66;;;-2.20;100.00
12759;BME280;20944;47.048;15.390;2022-12-18T00:10:01;98875.81;;;-2.73;100.00
12759;BME280;20944;47.048;15.390;2022-12-18T00:12:30;98924.81;;;-2.47;100.00
12759;BME280;20944;47.048;15.390;2022-12-18T00:14:58;98914.56;;;-2.66;100.00
12759;BME280;20944;47.048;15.390;2022-12-18T00:17:26;98936.06;;;-2.45;100.00
12759;BME280;20944;47.048;15.390;2022-12-18T00:19:56;98932.06;;;-2.38;100.00
12759;BME280;20944;47.048;15.390;2022-12-18T00:22:24;98860.84;;;-2.83;100.00
12759;BME280;20944;47.048;15.390;2022-12-18T00:24:52;98938.34;;;-2.32;100.00
12759;BME280;20944;47.048;15.390;2022-12-18T00:27:20;98905.19;;;-2.47;100.00
12759;BME280;20944;47.048;15.390;2022-12-18T00:29:48;98888.25;;;-2.62;100.00
12759;BME280;20944;47.048;15.390;2022-12-18T00:32:16;98867.72;;;-2.82;100.00
12759;BME280;20944;47.048;15.390;2022-12-18T00:34:45;98958.28;;;-2.26;100.00
12759;BME280;20944;47.048;15.390;2022-12-18T00:37:14;98956.88;;;-2.20;100.00
12759;BME280;20944;47.048;15.390;2022-12-18T00:39:48;98965.34;;;-2.21;100.00
12759;BME280;20944;47.048;15.390;2022-12-18T00:42:16;98963.41;;;-2.26;100.00
12759;BME280;20944;47.048;15.390;2022-12-18T00:45:01;98963.81;;;-2.36;100.00
12759;BME280;20944;47.048;15.390;2022-12-18T00:47:37;98968.59;;;-2.44;100.00
12759;BME280;20944;47.048;15.390;2022-12-18T00:50:07;98950.75;;;-2.60;100.00
12759;BME280;20944;47.048;15.390;2022-12-18T00:52:39;98978.22;;;-2.58;100.00
12759;BME280;20944;47.048;15.390;2022-12-18T00:55:08;98965.66;;;-2.52;100.00
12759;BME280;20944;47.048;15.390;2022-12-18T00:57:36;98898.47;;;-3.01;100.00
12759;BME280;20944;47.048;15.390;2022-12-18T01:00:08;98972.09;;;-2.61;100.00
12759;BME280;20944;47.048;15.390;2022-12-18T01:02:36;98971.81;;;-2.67;100.00
12759;BME280;20944;47.048;15.390;2022-12-18T01:05:05;98968.38;;;-2.68;100.00
12759;BME280;20944;47.048;15.390;2022-12-18T01:07:34;98978.41;;;-2.73;100.00
12759;BME280;20944;47.048;15.390;2022-12-18T01:10:04;98980.53;;;-2.64;100.00
12759;BME280;20944;47.048;15.390;2022-12-18T01:12:33;98988.34;;;-2.61;100.00
12759;BME280;20944;47.048;15.390;2022-12-18T01:15:01;98989.38;;;-2.57;100.00
12759;BME280;20944;47.048;15.390;2022-12-18T01:17:30;98992.53;;;-2.63;100.00
12759;BME280;20944;47.048;15.390;2022-12-18T01:19:58;98929.63;;;-2.92;100.00
12759;BME280;20944;47.048;15.390;2022-12-18T01:22:26;99003.53;;;-2.65;100.00
12759;BME280;20944;47.048;15.390;2022-12-18T01:24:54;98987.44;;;-2.81;100.00
12759;BME280;20944;47.048;15.390;2022-12-18T01:27:24;99003.13;;;-2.75;100.00
12759;BME280;20944;47.048;15.390;2022-12-18T01:29:52;98979.53;;;-3.03;100.00
12759;BME280;20944;47.048;15.390;2022-12-18T01:32:20;98826.88;;;-3.89;100.00
12759;BME280;20944;47.048;15.390;2022-12-18T01:34:49;98988.31;;;-2.98;100.00
12759;BME280;20944;47.048;15.390;2022-12-18T01:37:17;99005.91;;;-2.88;100.00
12759;BME280;20944;47.048;15.390;2022-12-18T01:39:45;99014.47;;;-2.87;100.00
12759;BME280;20944;47.048;15.390;2022-12-18T01:42:14;99015.72;;;-2.79;100.00
12759;BME280;20944;47.048;15.390;2022-12-18T01:45:00;99009.41;;;-2.86;100.00
12759;BME280;20944;47.048;15.390;2022-12-18T01:47:35;99002.03;;;-2.97;100.00
12759;BME280;20944;47.048;15.390;2022-12-18T01:50:09;98923.38;;;-3.34;100.00
12759;BME280;20944;47.048;15.390;2022-12-18T01:52:43;99028.53;;;-2.79;100.00
12759;BME280;20944;47.048;15.390;2022-12-18T01:55:12;99027.38;;;-2.86;100.00
12759;BME280;20944;47.048;15.390;2022-12-18T01:57:42;99032.13;;;-2.93;100.00
12759;BME280;20944;47.048;15.390;2022-12-18T02:00:14;98905.00;;;-3.79;100.00
12759;BME280;20944;47.048;15.390;2022-12-18T02:02:44;99043.19;;;-3.12;100.00
12759;BME280;20944;47.048;15.390;2022-12-18T02:05:15;99042.81;;;-3.20;100.00
12759;BME280;20944;47.048;15.390;2022-12-18T02:07:50;99046.19;;;-3.03;100.00
12759;BME280;20944;47.048;15.390;2022-12-18T02:10:27;99051.78;;;-2.94;100.00
12759;BME280;20944;47.048;15.390;2022-12-18T02:13:07;99050.91;;;-2.94;100.00
12759;BME280;20944;47.048;15.390;2022-12-18T02:15:46;99051.09;;;-2.90;100.00
12759;BME280;20944;47.048;15.390;2022-12-18T02:18:21;99026.13;;;-2.94;100.00
12759;BME280;20944;47.048;15.390;2022-12-18T02:20:55;99046.34;;;-2.82;100.00
12759;BME280;20944;47.048;15.390;2022-12-18T02:23:42;99055.88;;;-2.80;100.00
12759;BME280;20944;47.048;15.390;2022-12-18T02:26:20;99061.13;;;-2.77;100.00
12759;BME280;20944;47.048;15.390;2022-12-18T02:28:57;99066.25;;;-2.77;100.00
12759;BME280;20944;47.048;15.390;2022-12-18T02:31:30;99064.50;;;-2.95;100.00
12759;BME280;20944;47.048;15.390;2022-12-18T02:34:01;99083.63;;;-3.07;100.00
12759;BME280;20944;47.048;15.390;2022-12-18T02:36:32;99062.06;;;-3.10;100.00
12759;BME280;20944;47.048;15.390;2022-12-18T02:39:02;99059.88;;;-3.20;100.00
12759;BME280;20944;47.048;15.390;2022-12-18T02:41:34;99052.19;;;-3.20;100.00
12759;BME280;20944;47.048;15.390;2022-12-18T02:44:10;99020.59;;;-3.37;100.00
12759;BME280;20944;47.048;15.390;2022-12-18T02:46:41;99059.38;;;-3.13;100.00
12759;BME280;20944;47.048;15.390;2022-12-18T02:49:21;99016.63;;;-3.48;100.00
12759;BME280;20944;47.048;15.390;2022-12-18T02:51:53;99039.91;;;-3.44;100.00
12759;BME280;20944;47.048;15.390;2022-12-18T02:54:40;99073.03;;;-3.31;100.00
12759;BME280;20944;47.048;15.390;2022-12-18T02:57:16;99014.81;;;-3.67;100.00
12759;BME280;20944;47.048;15.390;2022-12-18T02:59:54;99036.81;;;-3.55;100.00
12759;BME280;20944;47.048;15.390;2022-12-18T03:02:26;99079.16;;;-3.27;100.00
12759;BME280;20944;47.048;15.390;2022-12-18T03:05:01;99089.72;;;-3.21;100.00
12759;BME280;20944;47.048;15.390;2022-12-18T03:07:36;99071.00;;;-3.20;100.00
12759;BME280;20944;47.048;15.390;2022-12-18T03:10:08;99090.78;;;-3.17;100.00
12759;BME280;20944;47.048;15.390;2022-12-18T03:12:45;99090.78;;;-3.17;100.00
12759;BME280;20944;47.048;15.390;2022-12-18T03:15:18;99089.53;;;-3.26;100.00
12759;BME280;20944;47.048;15.390;2022-12-18T03:17:54;99044.72;;;-3.50;100.00
12759;BME280;20944;47.048;15.390;2022-12-18T03:20:25;99086.38;;;-3.20;100.00
12759;BME280;20944;47.048;15.390;2022-12-18T03:23:00;99091.34;;;-3.23;100.00
12759;BME280;20944;47.048;15.390;2022-12-18T03:25:31;99084.41;;;-3.26;100.00
12759;BME280;20944;47.048;15.390;2022-12-18T03:28:03;99079.78;;;-3.33;100.00
12759;BME280;20944;47.048;15.390;2022-12-18T03:30:36;99076.91;;;-3.39;100.00
12759;BME280;20944;47.048;15.390;2022-12-18T03:33:07;99081.84;;;-3.42;100.00
12759;BME280;20944;47.048;15.390;2022-12-18T03:35:39;99078.28;;;-3.45;100.00
12759;BME280;20944;47.048;15.390;2022-12-18T03:38:07;99087.53;;;-3.47;100.00
12759;BME280;20944;47.048;15.390;2022-12-18T03:40:45;99091.78;;;-3.48;100.00
12759;BME280;20944;47.048;15.390;2022-12-18T03:43:29;99096.97;;;-3.46;100.00
12759;BME280;20944;47.048;15.390;2022-12-18T03:46:05;99091.09;;;-3.45;100.00
12759;BME280;20944;47.048;15.390;2022-12-18T03:48:38;99088.41;;;-3.47;100.00
12759;BME280;20944;47.048;15.390;2022-12-18T03:51:11;99099.97;;;-3.39;100.00
12759;BME280;20944;47.048;15.390;2022-12-18T03:53:47;99099.16;;;-3.38;100.00
12759;BME280;20944;47.048;15.390;2022-12-18T03:56:21;99068.53;;;-3.69;100.00
12759;BME280;20944;47.048;15.390;2022-12-18T03:58:52;99107.41;;;-3.43;100.00
12759;BME280;20944;47.048;15.390;2022-12-18T04:01:25;99110.84;;;-3.43;100.00
12759;BME280;20944;47.048;15.390;2022-12-18T04:03:57;99111.72;;;-3.42;100.00
12759;BME280;20944;47.048;15.390;2022-12-18T04:06:28;99086.03;;;-3.60;100.00
12759;BME280;20944;47.048;15.390;2022-12-18T04:08:57;99114.22;;;-3.44;100.00
12759;BME280;20944;47.048;15.390;2022-12-18T04:11:26;99120.66;;;-3.34;100.00
12759;BME280;20944;47.048;15.390;2022-12-18T04:13:57;99111.28;;;-3.34;100.00
12759;BME280;20944;47.048;15.390;2022-12-18T04:16:28;99093.34;;;-3.51;100.00
12759;BME280;20944;47.048;15.390;2022-12-18T04:18:56;99081.03;;;-3.75;100.00
12759;BME280;20944;47.048;15.390;2022-12-18T04:21:24;99114.78;;;-3.49;100.00
12759;BME280;20944;47.048;15.390;2022-12-18T04:23:52;99123.03;;;-3.55;100.00
12759;BME280;20944;47.048;15.390;2022-12-18T04:26:20;99132.63;;;-3.67;100.00
12759;BME280;20944;47.048;15.390;2022-12-18T04:28:49;99139.03;;;-3.75;100.00
12759;BME280;20944;47.048;15.390;2022-12-18T04:31:18;99085.06;;;-4.11;100.00
12759;BME280;20944;47.048;15.390;2022-12-18T04:33:46;99148.78;;;-3.68;100.00
12759;BME280;20944;47.048;15.390;2022-12-18T04:36:14;99150.63;;;-3.66;100.00
12759;BME280;20944;47.048;15.390;2022-12-18T04:38:43;99028.84;;;-4.42;100.00
12759;BME280;20944;47.048;15.390;2022-12-18T04:41:14;99122.16;;;-3.88;100.00
12759;BME280;20944;47.048;15.390;2022-12-18T04:43:42;99093.16;;;-4.03;100.00
12759;BME280;20944;47.048;15.390;2022-12-18T04:46:10;99115.50;;;-3.85;100.00
12759;BME280;20944;47.048;15.390;2022-12-18T04:48:40;99143.41;;;-3.73;100.00
12759;BME280;20944;47.048;15.390;2022-12-18T04:51:08;99142.28;;;-3.78;100.00
12759;BME280;20944;47.048;15.390;2022-12-18T04:53:36;99118.38;;;-3.95;100.00
12759;BME280;20944;47.048;15.390;2022-12-18T04:56:06;99177.09;;;-3.65;100.00
12759;BME280;20944;47.048;15.390;2022-12-18T04:58:35;99179.19;;;-3.74;100.00
12759;BME280;20944;47.048;15.390;2022-12-18T05:01:04;99130.59;;;-4.05;100.00
12759;BME280;20944;47.048;15.390;2022-12-18T05:03:33;99185.59;;;-3.66;100.00
12759;BME280;20944;47.048;15.390;2022-12-18T05:06:04;99174.72;;;-3.62;100.00
12759;BME280;20944;47.048;15.390;2022-12-18T05:08:33;99184.25;;;-3.60;100.00
12759;BME280;20944;47.048;15.390;2022-12-18T05:11:02;99197.44;;;-3.68;100.00
12759;BME280;20944;47.048;15.390;2022-12-18T05:13:32;99192.28;;;-3.85;100.00
12759;BME280;20944;47.048;15.390;2022-12-18T05:16:00;99172.22;;;-3.93;100.00
12759;BME280;20944;47.048;15.390;2022-12-18T05:18:28;99196.53;;;-3.85;100.00
12759;BME280;20944;47.048;15.390;2022-12-18T05:20:56;99197.41;;;-3.85;100.00
12759;BME280;20944;47.048;15.390;2022-12-18T05:23:26;99201.59;;;-3.87;100.00
12759;BME280;20944;47.048;15.390;2022-12-18T05:25:56;99205.03;;;-3.86;100.00
12759;BME280;20944;47.048;15.390;2022-12-18T05:28:26;99204.22;;;-3.85;100.00
12759;BME280;20944;47.048;15.390;2022-12-18T05:30:56;99204.63;;;-3.77;100.00
12759;BME280;20944;47.048;15.390;2022-12-18T05:33:26;99211.53;;;-3.60;100.00
12759;BME280;20944;47.048;15.390;2022-12-18T05:35:56;99208.72;;;-3.65;100.00
12759;BME280;20944;47.048;15.390;2022-12-18T05:38:26;99222.19;;;-3.69;100.00
12759;BME280;20944;47.048;15.390;2022-12-18T05:40:56;99219.78;;;-3.66;100.00
12759;BME280;20944;47.048;15.390;2022-12-18T05:43:26;99206.97;;;-3.82;100.00
12759;BME280;20944;47.048;15.390;2022-12-18T05:45:55;99224.00;;;-3.66;100.00
12759;BME280;20944;47.048;15.390;2022-12-18T05:48:24;99197.53;;;-3.83;100.00
12759;BME280;20944;47.048;15.390;2022-12-18T05:50:52;99176.28;;;-3.97;100.00
12759;BME280;20944;47.048;15.390;2022-12-18T05:53:20;99220.50;;;-3.68;100.00
12759;BME280;20944;47.048;15.390;2022-12-18T05:55:50;99224.00;;;-3.66;100.00
12759;BME280;20944;47.048;15.390;2022-12-18T05:58:18;99289.84;;;-3.80;100.00
12759;BME280;20944;47.048;15.390;2022-12-18T06:00:46;99231.53;;;-3.69;100.00
12759;BME280;20944;47.048;15.390;2022-12-18T06:03:14;99228.34;;;-3.65;100.00
12759;BME280;20944;47.048;15.390;2022-12-18T06:05:44;99140.78;;;-4.22;100.00
12759;BME280;20944;47.048;15.390;2022-12-18T06:08:13;99096.69;;;-4.49;100.00
12759;BME280;20944;47.048;15.390;2022-12-18T06:10:42;99237.13;;;-3.76;100.00
12759;BME280;20944;47.048;15.390;2022-12-18T06:13:11;99234.66;;;-3.75;100.00
12759;BME280;20944;47.048;15.390;2022-12-18T06:15:39;99248.25;;;-3.76;100.00
12759;BME280;20944;47.048;15.390;2022-12-18T06:18:08;99242.28;;;-3.60;100.00
12759;BME280;20944;47.048;15.390;2022-12-18T06:20:36;99210.41;;;-3.82;100.00
12759;BME280;20944;47.048;15.390;2022-12-18T06:23:06;99256.28;;;-3.54;100.00
12759;BME280;20944;47.048;15.390;2022-12-18T06:25:37;99266.47;;;-3.55;100.00
12759;BME280;20944;47.048;15.390;2022-12-18T06:28:05;99157.00;;;-4.38;100.00
12759;BME280;20944;47.048;15.390;2022-12-18T06:30:35;99269.50;;;-3.62;100.00
12759;BME280;20944;47.048;15.390;2022-12-18T06:33:03;99274.28;;;-3.52;100.00
12759;BME280;20944;47.048;15.390;2022-12-18T06:35:31;99192.81;;;-4.07;100.00
12759;BME280;20944;47.048;15.390;2022-12-18T06:38:01;99281.81;;;-3.55;100.00
12759;BME280;20944;47.048;15.390;2022-12-18T06:40:29;99285.53;;;-3.50;100.00
12759;BME280;20944;47.048;15.390;2022-12-18T06:42:57;99141.19;;;-4.30;100.00
12759;BME280;20944;47.048;15.390;2022-12-18T06:45:25;99261.34;;;-3.55;100.00
12759;BME280;20944;47.048;15.390;2022-12-18T06:47:55;99289.72;;;-3.36;100.00
12759;BME280;20944;47.048;15.390;2022-12-18T06:50:24;99289.09;;;-3.32;100.00
12759;BME280;20944;47.048;15.390;2022-12-18T06:52:53;99298.44;;;-3.32;100.00
12759;BME280;20944;47.048;15.390;2022-12-18T06:55:21;99294.22;;;-3.32;100.00
12759;BME280;20944;47.048;15.390;2022-12-18T06:57:49;99303.97;;;-3.24;100.00
12759;BME280;20944;47.048;15.390;2022-12-18T07:00:17;99305.81;;;-3.22;100.00
12759;BME280;20944;47.048;15.390;2022-12-18T07:02:45;99311.34;;;-3.14;100.00
12759;BME280;20944;47.048;15.390;2022-12-18T07:05:15;99306.53;;;-3.08;100.00
12759;BME280;20944;47.048;15.390;2022-12-18T07:07:43;99295.84;;;-3.01;100.00
12759;BME280;20944;47.048;15.390;2022-12-18T07:10:12;99303.84;;;-2.95;100.00
12759;BME280;20944;47.048;15.390;2022-12-18T07:12:40;99306.63;;;-2.90;100.00
12759;BME280;20944;47.048;15.390;2022-12-18T07:15:09;99288.47;;;-2.95;100.00
12759;BME280;20944;47.048;15.390;2022-12-18T07:17:37;99304.06;;;-2.74;100.00
12759;BME280;20944;47.048;15.390;2022-12-18T07:20:06;99186.75;;;-3.45;100.00
12759;BME280;20944;47.048;15.390;2022-12-18T07:22:36;99314.78;;;-2.65;100.00
12759;BME280;20944;47.048;15.390;2022-12-18T07:25:05;99316.88;;;-2.58;100.00
12759;BME280;20944;47.048;15.390;2022-12-18T07:27:33;99318.09;;;-2.51;100.00
12759;BME280;20944;47.048;15.390;2022-12-18T07:30:01;99324.25;;;-2.48;100.00
12759;BME280;20944;47.048;15.390;2022-12-18T07:32:30;99331.13;;;-2.47;100.00
12759;BME280;20944;47.048;15.390;2022-12-18T07:34:58;99339.81;;;-2.45;100.00
12759;BME280;20944;47.048;15.390;2022-12-18T07:37:26;99329.69;;;-2.41;100.00
12759;BME280;20944;47.048;15.390;2022-12-18T07:39:56;99335.19;;;-2.34;100.00
12759;BME280;20944;47.048;15.390;2022-12-18T07:42:24;99338.88;;;-2.29;100.00
12759;BME280;20944;47.048;15.390;2022-12-18T07:44:59;99334.53;;;-2.13;100.00
12759;BME280;20944;47.048;15.390;2022-12-18T07:47:27;99317.72;;;-2.25;100.00
12759;BME280;20944;47.048;15.390;2022-12-18T07:49:59;99340.13;;;-2.04;100.00
12759;BME280;20944;47.048;15.390;2022-12-18T07:52:27;99340.03;;;-2.06;100.00
12759;BME280;20944;47.048;15.390;2022-12-18T07:54:57;99349.25;;;-2.09;100.00
12759;BME280;20944;47.048;15.390;2022-12-18T07:57:26;99335.00;;;-2.21;100.00
12759;BME280;20944;47.048;15.390;2022-12-18T08:00:14;99336.88;;;-2.34;100.00
12759;BME280;20944;47.048;15.390;2022-12-18T08:02:43;99361.03;;;-1.97;100.00
12759;BME280;20944;47.048;15.390;2022-12-18T08:05:11;99358.69;;;-1.92;100.00
12759;BME280;20944;47.048;15.390;2022-12-18T08:07:39;99359.53;;;-1.75;100.00
12759;BME280;20944;47.048;15.390;2022-12-18T08:10:09;99360.19;;;-1.61;100.00
12759;BME280;20944;47.048;15.390;2022-12-18T08:12:38;99355.13;;;-1.42;100.00
12759;BME280;20944;47.048;15.390;2022-12-18T08:15:06;99360.16;;;-1.26;100.00
12759;BME280;20944;47.048;15.390;2022-12-18T08:17:35;99368.00;;;-1.05;100.00
12759;BME280;20944;47.048;15.390;2022-12-18T08:20:03;99365.25;;;-0.90;100.00
12759;BME280;20944;47.048;15.390;2022-12-18T08:22:33;99369.13;;;-0.80;100.00
12759;BME280;20944;47.048;15.390;2022-12-18T08:25:08;99372.84;;;-0.74;100.00
12759;BME280;20944;47.048;15.390;2022-12-18T08:27:37;99375.00;;;-0.64;100.00
12759;BME280;20944;47.048;15.390;2022-12-18T08:30:06;99360.66;;;-0.59;100.00
12759;BME280;20944;47.048;15.390;2022-12-18T08:32:34;99275.81;;;-0.96;100.00
12759;BME280;20944;47.048;15.390;2022-12-18T08:35:03;99347.19;;;-0.53;100.00
12759;BME280;20944;47.048;15.390;2022-12-18T08:37:32;99324.22;;;-0.68;100.00
12759;BME280;20944;47.048;15.390;2022-12-18T08:40:00;99310.66;;;-0.83;100.00
12759;BME280;20944;47.048;15.390;2022-12-18T08:42:30;99315.41;;;-0.73;100.00
12759;BME280;20944;47.048;15.390;2022-12-18T08:45:15;99308.91;;;-0.84;100.00
12759;BME280;20944;47.048;15.390;2022-12-18T08:47:44;99355.78;;;-0.72;100.00
12759;BME280;20944;47.048;15.390;2022-12-18T08:50:12;99376.72;;;-0.64;100.00
12759;BME280;20944;47.048;15.390;2022-12-18T08:52:41;99390.38;;;-0.65;100.00
12759;BME280;20944;47.048;15.390;2022-12-18T08:55:09;99352.44;;;-0.69;100.00
12759;BME280;20944;47.048;15.390;2022-12-18T08:57:39;99352.72;;;-0.63;100.00
12759;BME280;20944;47.048;15.390;2022-12-18T09:00:08;99369.88;;;-0.64;100.00
12759;BME280;20944;47.048;15.390;2022-12-18T09:02:36;99335.44;;;-1.04;100.00
12759;BME280;20944;47.048;15.390;2022-12-18T09:05:06;99378.31;;;-0.86;100.00
12759;BME280;20944;47.048;15.390;2022-12-18T09:07:34;99458.31;;;-1.17;100.00
12759;BME280;20944;47.048;15.390;2022-12-18T09:10:03;99380.41;;;-0.77;100.00
12759;BME280;20944;47.048;15.390;2022-12-18T09:15:01;99382.66;;;-0.46;100.00
12759;BME280;20944;47.048;15.390;2022-12-18T09:17:29;99384.84;;;-0.36;100.00
12759;BME280;20944;47.048;15.390;2022-12-18T09:19:58;99390.66;;;-0.20;100.00
12759;BME280;20944;47.048;15.390;2022-12-18T09:22:26;99375.69;;;-0.29;100.00
12759;BME280;20944;47.048;15.390;2022-12-18T09:24:54;99343.19;;;-0.46;100.00
12759;BME280;20944;47.048;15.390;2022-12-18T09:27:22;99388.66;;;0.13;100.00
12759;BME280;20944;47.048;15.390;2022-12-18T09:29:50;99394.59;;;0.12;100.00
12759;BME280;20944;47.048;15.390;2022-12-18T09:32:20;99287.41;;;-0.46;100.00
12759;BME280;20944;47.048;15.390;2022-12-18T09:34:48;99390.03;;;0.25;100.00
12759;BME280;20944;47.048;15.390;2022-12-18T09:37:17;99399.06;;;0.37;100.00
12759;BME280;20944;47.048;15.390;2022-12-18T09:39:45;99396.50;;;0.37;100.00
12759;BME280;20944;47.048;15.390;2022-12-18T09:42:20;99393.91;;;0.37;100.00
12759;BME280;20944;47.048;15.390;2022-12-18T09:44:50;99348.72;;;0.03;100.00
12759;BME280;20944;47.048;15.390;2022-12-18T09:47:24;99381.84;;;0.15;100.00
12759;BME280;20944;47.048;15.390;2022-12-18T09:49:56;99365.72;;;-0.01;100.00
12759;BME280;20944;47.048;15.390;2022-12-18T09:52:28;99374.81;;;0.11;100.00
12759;BME280;20944;47.048;15.390;2022-12-18T09:55:03;99376.28;;;0.06;100.00
12759;BME280;20944;47.048;15.390;2022-12-18T09:57:35;99391.09;;;0.10;100.00
12759;BME280;20944;47.048;15.390;2022-12-18T10:00:15;99381.03;;;0.16;100.00
12759;BME280;20944;47.048;15.390;2022-12-18T10:02:47;99365.47;;;0.13;100.00
12759;BME280;20944;47.048;15.390;2022-12-18T10:05:23;99380.91;;;0.34;100.00
12759;BME280;20944;47.048;15.390;2022-12-18T10:07:59;99374.16;;;0.37;100.00
12759;BME280;20944;47.048;15.390;2022-12-18T10:10:36;99365.81;;;0.43;100.00
12759;BME280;20944;47.048;15.390;2022-12-18T10:13:15;99373.78;;;0.49;100.00
12759;BME280;20944;47.048;15.390;2022-12-18T10:15:56;99378.06;;;0.48;100.00
12759;BME280;20944;47.048;15.390;2022-12-18T10:18:39;99372.72;;;0.44;100.00
12759;BME280;20944;47.048;15.390;2022-12-18T10:21:17;99380.00;;;0.32;100.00
12759;BME280;20944;47.048;15.390;2022-12-18T10:23:53;99382.16;;;0.22;100.00
12759;BME280;20944;47.048;15.390;2022-12-18T10:26:26;99373.09;;;0.11;100.00
12759;BME280;20944;47.048;15.390;2022-12-18T10:28:54;99373.81;;;0.07;100.00
12759;BME280;20944;47.048;15.390;2022-12-18T10:31:31;99374.94;;;0.14;100.00
12759;BME280;20944;47.048;15.390;2022-12-18T10:34:00;99249.75;;;-0.44;100.00
12759;BME280;20944;47.048;15.390;2022-12-18T10:36:29;99380.66;;;0.28;100.00
12759;BME280;20944;47.048;15.390;2022-12-18T10:39:14;99377.94;;;0.04;100.00
12759;BME280;20944;47.048;15.390;2022-12-18T10:41:42;99236.53;;;-0.72;100.00
12759;BME280;20944;47.048;15.390;2022-12-18T10:44:16;99380.78;;;0.31;100.00
12759;BME280;20944;47.048;15.390;2022-12-18T10:46:45;99357.91;;;0.38;100.00
12759;BME280;20944;47.048;15.390;2022-12-18T10:49:26;99374.09;;;0.57;100.00
12759;BME280;20944;47.048;15.390;2022-12-18T10:52:05;99350.28;;;0.41;100.00
12759;BME280;20944;47.048;15.390;2022-12-18T10:54:36;99294.88;;;-0.12;100.00
12759;BME280;20944;47.048;15.390;2022-12-18T10:57:16;99217.16;;;-0.84;100.00
12759;BME280;20944;47.048;15.390;2022-12-18T10:59:51;99365.66;;;-0.23;100.00
12759;BME280;20944;47.048;15.390;2022-12-18T11:02:27;99350.44;;;-0.38;100.00
12759;BME280;20944;47.048;15.390;2022-12-18T11:05:00;99357.47;;;-0.53;100.00
12759;BME280;20944;47.048;15.390;2022-12-18T11:07:47;99338.25;;;-0.61;100.00
12759;BME280;20944;47.048;15.390;2022-12-18T11:10:17;99359.28;;;-0.50;100.00
12759;BME280;20944;47.048;15.390;2022-12-18T11:12:46;99361.75;;;-0.53;100.00
12759;BME280;20944;47.048;15.390;2022-12-18T11:15:18;99369.53;;;-0.52;100.00
12759;BME280;20944;47.048;15.390;2022-12-18T11:17:48;99361.25;;;-0.45;100.00
12759;BME280;20944;47.048;15.390;2022-12-18T11:20:29;99335.69;;;-0.61;100.00
12759;BME280;20944;47.048;15.390;2022-12-18T11:22:59;99337.50;;;-0.59;100.00
12759;BME280;20944;47.048;15.390;2022-12-18T11:25:30;99339.13;;;-0.61;100.00
12759;BME280;20944;47.048;15.390;2022-12-18T11:28:02;99357.94;;;-0.42;100.00
12759;BME280;20944;47.048;15.390;2022-12-18T11:30:32;99350.97;;;-0.45;100.00
12759;BME280;20944;47.048;15.390;2022-12-18T11:33:04;99354.41;;;-0.44;100.00
12759;BME280;20944;47.048;15.390;2022-12-18T11:35:39;99202.53;;;-1.25;100.00
12759;BME280;20944;47.048;15.390;2022-12-18T11:38:20;99283.47;;;-0.78;100.00
12759;BME280;20944;47.048;15.390;2022-12-18T11:40:56;99264.25;;;-0.86;100.00
12759;BME280;20944;47.048;15.390;2022-12-18T11:43:29;99344.88;;;-0.47;100.00
12759;BME280;20944;47.048;15.390;2022-12-18T11:46:02;99339.19;;;-0.59;100.00
12759;BME280;20944;47.048;15.390;2022-12-18T11:48:36;99309.41;;;-0.73;100.00
12759;BME280;20944;47.048;15.390;2022-12-18T11:51:11;99330.47;;;-0.63;100.00
12759;BME280;20944;47.048;15.390;2022-12-18T11:53:42;99320.63;;;-0.71;100.00
12759;BME280;20944;47.048;15.390;2022-12-18T11:56:26;99336.34;;;-0.65;100.00
12759;BME280;20944;47.048;15.390;2022-12-18T11:59:04;99336.66;;;-0.58;100.00
12759;BME280;20944;47.048;15.390;2022-12-18T12:01:44;99327.19;;;-0.59;100.00
12759;BME280;20944;47.048;15.390;2022-12-18T12:07:21;99319.41;;;-0.79;100.00
12759;BME280;20944;47.048;15.390;2022-12-18T12:09:59;99327.59;;;-0.88;100.00
12759;BME280;20944;47.048;15.390;2022-12-18T12:12:37;99326.31;;;-0.98;100.00
12759;BME280;20944;47.048;15.390;2022-12-18T12:15:27;99343.81;;;-1.09;100.00
12759;BME280;20944;47.048;15.390;2022-12-18T12:18:08;99313.88;;;-1.26;100.00
12759;BME280;20944;47.048;15.390;2022-12-18T12:20:46;99335.28;;;-1.08;100.00
12759;BME280;20944;47.048;15.390;2022-12-18T12:23:25;99317.75;;;-1.16;100.00
12759;BME280;20944;47.048;15.390;2022-12-18T12:25:58;99337.81;;;-1.09;100.00
12759;BME280;20944;47.048;15.390;2022-12-18T12:28:41;99332.69;;;-1.27;100.00
12759;BME280;20944;47.048;15.390;2022-12-18T12:31:16;99334.97;;;-1.33;100.00
12759;BME280;20944;47.048;15.390;2022-12-18T12:33:54;99329.63;;;-1.38;100.00
12759;BME280;20944;47.048;15.390;2022-12-18T12:36:31;99339.03;;;-1.38;100.00
12759;BME280;20944;47.048;15.390;2022-12-18T12:39:10;99328.88;;;-1.35;100.00
12759;BME280;20944;47.048;15.390;2022-12-18T12:41:42;99329.47;;;-1.41;100.00
12759;BME280;20944;47.048;15.390;2022-12-18T12:44:34;99329.41;;;-1.42;100.00
12759;BME280;20944;47.048;15.390;2022-12-18T12:47:13;99330.22;;;-1.43;100.00
12759;BME280;20944;47.048;15.390;2022-12-18T12:49:46;99330.94;;;-1.46;100.00
12759;BME280;20944;47.048;15.390;2022-12-18T12:52:21;99293.50;;;-1.58;100.00
12759;BME280;20944;47.048;15.390;2022-12-18T12:54:54;99328.13;;;-1.32;100.00
12759;BME280;20944;47.048;15.390;2022-12-18T12:57:27;99332.50;;;-1.31;100.00
12759;BME280;20944;47.048;15.390;2022-12-18T13:00:02;99302.53;;;-1.49;100.00
12759;BME280;20944;47.048;15.390;2022-12-18T13:02:35;99340.41;;;-1.27;100.00
12759;BME280;20944;47.048;15.390;2022-12-18T13:05:12;99372.94;;;-1.27;100.00
12759;BME280;20944;47.048;15.390;2022-12-18T13:07:50;99332.69;;;-1.27;100.00